createdAt,value
2022-10-30T00:00:01.472Z,0
2022-10-30T00:05:01.482Z,0
2022-10-30T00:10:01.587Z,0
2022-10-30T00:15:06.499Z,0
2022-10-30T00:20:01.508Z,0
2022-10-30T00:25:01.607Z,0
2022-10-30T00:30:01.442Z,0
2022-10-30T00:35:01.472Z,0
2022-10-30T00:40:01.547Z,0
2022-10-30T00:45:05.843Z,0
2022-10-30T00:50:01.641Z,0
2022-10-30T00:55:01.688Z,0
2022-10-30T01:00:01.560Z,0
2022-10-30T01:05:01.921Z,0
2022-10-30T01:10:01.471Z,0
2022-10-30T01:15:11.567Z,0
2022-10-30T01:25:01.724Z,0
2022-10-30T01:30:01.671Z,0
2022-10-30T01:35:01.565Z,0
2022-10-30T01:40:01.644Z,0
2022-10-30T01:45:05.740Z,0
2022-10-30T01:50:01.566Z,0
2022-10-30T01:55:01.619Z,0
2022-10-30T02:00:01.619Z,0
2022-10-30T02:05:01.641Z,0
2022-10-30T02:10:01.686Z,0
2022-10-30T02:15:11.639Z,0
2022-10-30T02:20:01.785Z,0
2022-10-30T02:25:01.594Z,0
2022-10-30T02:30:01.662Z,0
2022-10-30T02:35:01.787Z,0
2022-10-30T02:40:01.671Z,0
2022-10-30T02:45:05.749Z,0
2022-10-30T02:50:01.779Z,0
2022-10-30T02:55:01.806Z,0
2022-10-30T03:00:01.739Z,0
2022-10-30T03:05:01.944Z,0
2022-10-30T03:10:01.690Z,0
2022-10-30T03:15:09.986Z,0
2022-10-30T03:20:01.627Z,0
2022-10-30T03:25:01.680Z,0
2022-10-30T03:30:01.722Z,0
2022-10-30T03:35:01.814Z,0
2022-10-30T03:40:01.681Z,0
2022-10-30T03:45:12.166Z,0
2022-10-30T03:50:01.685Z,0
2022-10-30T03:55:01.661Z,0
2022-10-30T04:00:01.712Z,0
2022-10-30T04:05:01.783Z,0
2022-10-30T04:10:02.177Z,0
2022-10-30T04:15:12.034Z,0
2022-10-30T04:20:01.724Z,0
2022-10-30T04:25:01.676Z,0
2022-10-30T04:30:01.720Z,0
2022-10-30T04:35:01.871Z,0
2022-10-30T04:40:01.667Z,0
2022-10-30T04:45:08.717Z,0
2022-10-30T04:50:01.823Z,0
2022-10-30T04:55:01.894Z,0
2022-10-30T05:00:01.812Z,0
2022-10-30T05:05:01.694Z,0
2022-10-30T05:10:01.779Z,0
2022-10-30T05:15:09.265Z,0
2022-10-30T05:20:02.207Z,0
2022-10-30T05:25:01.806Z,0
2022-10-30T05:30:01.900Z,0
2022-10-30T05:35:02.040Z,0
2022-10-30T05:40:01.704Z,0
2022-10-30T05:45:05.746Z,0
2022-10-30T05:50:01.747Z,0
2022-10-30T05:55:01.740Z,0
2022-10-30T06:00:01.769Z,0
2022-10-30T06:05:02.196Z,0
2022-10-30T06:10:01.914Z,0
2022-10-30T06:15:06.926Z,0
2022-10-30T06:20:01.830Z,0
2022-10-30T06:25:01.931Z,0
2022-10-30T06:30:02.102Z,0
2022-10-30T06:35:01.810Z,0.0777989417989418
2022-10-30T06:40:01.790Z,0.3535343915343915
2022-10-30T06:45:05.242Z,0.3301481481481482
2022-10-30T06:50:01.995Z,0.3691322751322752
2022-10-30T06:55:02.027Z,0.32317460317460317
2022-10-30T07:00:01.848Z,0.5415767195767196
2022-10-30T07:05:01.828Z,0.5800634920634921
2022-10-30T07:10:01.853Z,0.6511005291005292
2022-10-30T07:15:08.987Z,0.6681693121693122
2022-10-30T07:20:01.879Z,0.5957460317460318
2022-10-30T07:25:01.897Z,0.6571746031746032
2022-10-30T07:30:02.055Z,1.1269100529100529
2022-10-30T07:35:02.012Z,1.5125820105820105
2022-10-30T07:40:01.853Z,1.8404761904761906
2022-10-30T07:45:06.471Z,2.289714285714286
2022-10-30T07:50:01.831Z,4.331978835978837
2022-10-30T07:55:01.940Z,7.055005291005291
2022-10-30T08:00:03.814Z,8.259068783068784
2022-10-30T08:05:01.935Z,9.494285714285715
2022-10-30T08:10:02.133Z,18.398560846560848
2022-10-30T08:15:10.714Z,14.568095238095239
2022-10-30T08:20:01.970Z,21.906592592592595
2022-10-30T08:25:02.086Z,23.296126984126982
2022-10-30T08:30:01.905Z,11.644465608465609
2022-10-30T08:35:01.941Z,10.1824126984127
2022-10-30T08:40:02.301Z,8.277089947089948
2022-10-30T08:45:06.056Z,8.23500529100529
2022-10-30T08:50:02.607Z,7.96010582010582
2022-10-30T08:55:02.089Z,7.79584126984127
2022-10-30T09:00:01.983Z,8.047936507936509
2022-10-30T09:05:02.329Z,8.828
2022-10-30T09:10:02.008Z,8.066835978835979
2022-10-30T09:15:07.110Z,9.158719576719578
2022-10-30T09:20:02.159Z,19.514825396825398
2022-10-30T09:25:02.378Z,35.5808253968254
2022-10-30T09:30:01.943Z,43.55511111111112
2022-10-30T09:35:01.961Z,44.994116402116404
2022-10-30T09:40:03.709Z,46.72918518518519
2022-10-30T09:45:28.466Z,47.101608465608464
2022-10-30T09:50:02.252Z,48.131608465608466
2022-10-30T09:55:02.108Z,49.3429417989418
2022-10-30T10:00:01.946Z,49.501777777777775
2022-10-30T10:05:01.982Z,49.6794074074074
2022-10-30T10:10:02.151Z,49.890708994709
2022-10-30T10:15:05.512Z,50.046867724867724
2022-10-30T10:20:02.161Z,50.64098412698414
2022-10-30T10:25:02.158Z,51.4894708994709
2022-10-30T10:30:02.156Z,52.5300634920635
2022-10-30T10:35:02.009Z,53.261671957671965
2022-10-30T10:40:02.010Z,53.38804232804233
2022-10-30T10:45:12.961Z,53.20221164021165
2022-10-30T10:50:02.025Z,53.05913227513227
2022-10-30T10:55:02.010Z,54.218433862433855
2022-10-30T11:00:02.148Z,54.12757671957672
2022-10-30T11:05:02.163Z,54.729216931216925
2022-10-30T11:10:02.043Z,54.75623280423281
2022-10-30T11:15:08.534Z,54.736677248677246
2022-10-30T11:20:02.033Z,54.24062433862434
2022-10-30T11:25:02.040Z,54.27530158730159
2022-10-30T11:30:02.038Z,54.12057142857143
2022-10-30T11:35:02.234Z,54.189375661375664
2022-10-30T11:40:02.286Z,53.999058201058205
2022-10-30T11:45:06.127Z,53.60311111111111
2022-10-30T11:50:02.161Z,52.7627619047619
2022-10-30T11:55:02.114Z,52.416677248677246
2022-10-30T12:00:05.163Z,52.4641164021164
2022-10-30T12:05:02.066Z,52.19099470899471
2022-10-30T12:10:02.357Z,51.9277037037037
2022-10-30T12:15:12.093Z,51.8808253968254
2022-10-30T12:20:02.150Z,50.20756613756614
2022-10-30T12:25:02.111Z,49.45312169312169
2022-10-30T12:30:08.232Z,47.90518518518518
2022-10-30T12:35:02.096Z,45.58757671957672
2022-10-30T12:40:02.115Z,43.82423280423281
2022-10-30T12:45:06.948Z,42.02005291005291
2022-10-30T12:50:02.506Z,38.31478306878307
2022-10-30T12:55:02.151Z,39.195989417989416
2022-10-30T13:00:02.098Z,37.906751322751326
2022-10-30T13:05:02.182Z,34.49646560846561
2022-10-30T13:20:02.292Z,29.98919576719577
2022-10-30T13:25:03.605Z,20.106518518518516
2022-10-30T13:30:02.272Z,12.298708994708996
2022-10-30T13:35:02.184Z,11.793968253968254
2022-10-30T13:40:02.151Z,10.034814814814814
2022-10-30T13:45:02.230Z,12.110201058201058
2022-10-30T13:50:02.321Z,13.6604126984127
2022-10-30T13:55:02.407Z,18.57904761904762
2022-10-30T14:00:02.177Z,16.037291005291006
2022-10-30T14:05:02.250Z,14.099544973544972
2022-10-30T14:10:02.174Z,10.966486772486773
2022-10-30T14:15:02.217Z,7.748328042328042
2022-10-30T14:20:02.338Z,4.1030687830687835
2022-10-30T14:25:02.384Z,3.2895026455026457
2022-10-30T14:30:02.181Z,2.3084761904761906
2022-10-30T14:35:02.224Z,1.4655132275132277
2022-10-30T14:40:02.196Z,1.423693121693122
2022-10-30T14:45:02.264Z,0.7324126984126985
2022-10-30T14:50:02.348Z,0.6194603174603175
2022-10-30T14:55:02.330Z,0.34245502645502646
2022-10-30T15:00:02.272Z,0.31863492063492066
2022-10-30T15:05:03.918Z,0.08856084656084656
2022-10-30T15:10:02.298Z,0
2022-10-30T15:15:02.227Z,0
2022-10-30T15:20:02.323Z,0
2022-10-30T15:25:02.446Z,0
2022-10-30T15:30:02.242Z,0
2022-10-30T15:35:02.237Z,0
2022-10-30T15:40:02.254Z,0
2022-10-30T15:45:02.247Z,0
2022-10-30T15:50:02.257Z,0
2022-10-30T15:55:02.621Z,0
2022-10-30T16:00:02.519Z,0
2022-10-30T16:05:02.254Z,0
2022-10-30T16:10:02.284Z,0
2022-10-30T16:15:02.341Z,0
2022-10-30T16:20:02.389Z,0
2022-10-30T16:25:02.326Z,0
2022-10-30T16:30:02.513Z,0
2022-10-30T16:35:02.262Z,0
2022-10-30T16:40:02.340Z,0
2022-10-30T16:45:02.322Z,0
2022-10-30T16:50:02.341Z,0
2022-10-30T16:55:02.287Z,0
2022-10-30T17:00:02.419Z,0
2022-10-30T17:05:02.528Z,0
2022-10-30T17:10:02.341Z,0
2022-10-30T17:15:02.284Z,0
2022-10-30T17:20:02.383Z,0
2022-10-30T17:25:02.351Z,0
2022-10-30T17:30:02.457Z,0
2022-10-30T17:35:02.542Z,0
2022-10-30T17:40:02.369Z,0
2022-10-30T17:45:02.394Z,0
2022-10-30T17:50:02.397Z,0
2022-10-30T17:55:02.363Z,0
2022-10-30T18:00:02.430Z,0
2022-10-30T18:05:02.512Z,0
2022-10-30T18:10:02.540Z,0
2022-10-30T18:15:02.346Z,0
2022-10-30T18:20:02.470Z,0
2022-10-30T18:25:02.399Z,0
2022-10-30T18:30:02.557Z,0
2022-10-30T18:35:02.543Z,0
2022-10-30T18:40:02.405Z,0
2022-10-30T18:45:02.388Z,0
2022-10-30T18:50:02.438Z,0
2022-10-30T18:55:02.428Z,0
2022-10-30T19:00:02.483Z,0
2022-10-30T19:05:02.574Z,0
2022-10-30T19:10:03.561Z,0
2022-10-30T19:15:02.536Z,0
2022-10-30T19:20:02.434Z,0
2022-10-30T19:25:02.436Z,0
2022-10-30T19:30:02.482Z,0
2022-10-30T19:35:02.705Z,0
2022-10-30T19:40:02.483Z,0
2022-10-30T19:45:02.449Z,0
2022-10-30T19:50:02.555Z,0
2022-10-30T19:55:02.529Z,0
2022-10-30T20:00:02.455Z,0
2022-10-30T20:05:02.636Z,0
2022-10-30T20:10:02.635Z,0
2022-10-30T20:15:02.513Z,0
2022-10-30T20:20:02.596Z,0
2022-10-30T20:25:02.514Z,0
2022-10-30T20:30:02.488Z,0
2022-10-30T20:35:05.162Z,0
2022-10-30T20:40:02.609Z,0
2022-10-30T20:45:02.760Z,0
2022-10-30T20:50:02.605Z,0
2022-10-30T20:55:02.598Z,0
2022-10-30T21:00:02.693Z,0
2022-10-30T21:05:11.689Z,0
2022-10-30T21:10:02.679Z,0
2022-10-30T21:15:02.668Z,0
2022-10-30T21:20:02.695Z,0
2022-10-30T21:25:02.633Z,0
2022-10-30T21:30:02.585Z,0
2022-10-30T21:35:02.562Z,0
2022-10-30T21:40:02.573Z,0
2022-10-30T21:45:02.655Z,0
2022-10-30T21:50:06.008Z,0
2022-10-30T21:55:02.578Z,0
2022-10-30T22:00:05.416Z,0
2022-10-30T22:05:02.582Z,0
2022-10-30T22:10:02.562Z,0
2022-10-30T22:15:03.009Z,0
2022-10-30T22:20:02.744Z,0
2022-10-30T22:25:02.773Z,0
2022-10-30T22:30:02.725Z,0
2022-10-30T22:35:02.595Z,0
2022-10-30T22:40:02.626Z,0
2022-10-30T22:45:02.683Z,0
2022-10-30T22:50:02.662Z,0
2022-10-30T22:55:02.753Z,0
2022-10-30T23:00:02.632Z,0
2022-10-30T23:05:02.613Z,0
2022-10-30T23:10:02.663Z,0
2022-10-30T23:15:02.643Z,0
2022-10-30T23:20:02.756Z,0
2022-10-30T23:25:02.795Z,0
2022-10-30T23:30:02.626Z,0
2022-10-30T23:35:02.698Z,0
2022-10-30T23:40:02.693Z,0
2022-10-30T23:45:02.692Z,0
2022-10-30T23:50:02.774Z,0
2022-10-30T23:55:02.813Z,0
